createdAt,value
2023-04-11T00:01:33.076Z,12.20
2023-04-11T00:04:04.205Z,12.20
2023-04-11T00:06:35.100Z,12.30
2023-04-11T00:09:05.822Z,12.30
2023-04-11T00:11:36.447Z,12.30
2023-04-11T00:14:09.103Z,12.40
2023-04-11T00:16:59.929Z,12.40
2023-04-11T00:19:30.818Z,12.50
2023-04-11T00:22:01.608Z,12.50
2023-04-11T00:24:32.333Z,12.40
2023-04-11T00:27:02.955Z,12.30
2023-04-11T00:29:35.852Z,12.30
2023-04-11T00:32:07.349Z,12.20
2023-04-11T00:34:38.032Z,12.20
2023-04-11T00:37:08.843Z,12.10
2023-04-11T00:39:39.669Z,12.10
2023-04-11T00:42:11.290Z,12.10
2023-04-11T00:44:41.889Z,12.00
2023-04-11T00:47:12.934Z,11.80
2023-04-11T00:49:43.733Z,11.80
2023-04-11T00:52:14.611Z,11.80
2023-04-11T00:54:45.237Z,11.70
2023-04-11T00:57:16.257Z,11.80
2023-04-11T00:59:49.088Z,11.80
2023-04-11T01:02:19.971Z,11.80
2023-04-11T01:04:51.425Z,11.80
2023-04-11T01:07:24.571Z,11.70
2023-04-11T01:09:56.414Z,11.60
2023-04-11T01:12:27.536Z,11.70
2023-04-11T01:14:58.924Z,11.60
2023-04-11T01:17:29.633Z,11.70
2023-04-11T01:20:00.680Z,11.80
2023-04-11T01:22:32.462Z,11.70
2023-04-11T01:25:03.062Z,11.80
2023-04-11T01:27:34.260Z,11.80
2023-04-11T01:30:05.404Z,11.70
2023-04-11T01:32:36.111Z,11.70
2023-04-11T01:35:08.565Z,11.70
2023-04-11T01:37:39.413Z,11.70
2023-04-11T01:40:13.648Z,11.80
2023-04-11T01:42:45.168Z,11.80
2023-04-11T01:45:16.401Z,11.90
2023-04-11T01:47:49.601Z,11.80
2023-04-11T01:50:19.743Z,11.70
2023-04-11T01:52:51.176Z,11.60
2023-04-11T01:55:40.488Z,11.40
2023-04-11T01:58:11.645Z,11.20
2023-04-11T02:00:42.721Z,11.00
2023-04-11T02:03:14.130Z,11.00
2023-04-11T02:05:46.208Z,10.90
2023-04-11T02:08:17.201Z,10.90
2023-04-11T02:10:48.146Z,10.80
2023-04-11T02:13:19.473Z,10.70
2023-04-11T02:15:50.595Z,10.80
2023-04-11T02:18:21.703Z,11.00
2023-04-11T02:20:53.074Z,11.10
2023-04-11T02:23:24.392Z,11.20
2023-04-11T02:25:55.181Z,11.20
2023-04-11T02:28:25.875Z,11.20
2023-04-11T02:30:56.954Z,11.20
2023-04-11T02:33:27.782Z,10.90
2023-04-11T02:35:58.449Z,10.70
2023-04-11T02:38:29.193Z,10.70
2023-04-11T02:41:00.559Z,10.70
2023-04-11T02:43:31.185Z,10.60
2023-04-11T02:46:09.755Z,10.50
2023-04-11T02:48:34.068Z,10.50
2023-04-11T02:51:04.786Z,10.50
2023-04-11T02:53:35.972Z,10.40
2023-04-11T02:56:07.995Z,10.40
2023-04-11T02:58:42.072Z,10.50
2023-04-11T03:01:15.062Z,10.60
2023-04-11T03:03:46.318Z,10.50
2023-04-11T03:06:17.338Z,10.50
2023-04-11T03:08:48.397Z,10.50
2023-04-11T03:11:19.563Z,10.50
2023-04-11T03:13:50.606Z,10.40
2023-04-11T03:16:21.448Z,10.50
2023-04-11T03:18:52.648Z,10.40
2023-04-11T03:21:23.771Z,10.40
2023-04-11T03:23:55.029Z,10.50
2023-04-11T03:26:27.256Z,10.40
2023-04-11T03:28:58.841Z,10.30
2023-04-11T03:31:30.791Z,10.30
2023-04-11T03:34:20.278Z,10.30
2023-04-11T03:36:51.352Z,10.30
2023-04-11T03:39:22.974Z,10.30
2023-04-11T03:41:54.137Z,10.40
2023-04-11T03:44:25.199Z,10.40
2023-04-11T03:46:56.355Z,10.40
2023-04-11T03:49:27.472Z,10.40
2023-04-11T03:51:58.923Z,10.40
2023-04-11T03:54:29.953Z,10.40
2023-04-11T03:57:01.281Z,10.40
2023-04-11T03:59:32.898Z,10.40
2023-04-11T04:02:04.074Z,10.40
2023-04-11T04:04:35.201Z,10.40
2023-04-11T04:07:06.891Z,10.50
2023-04-11T04:09:38.403Z,10.40
2023-04-11T04:12:10.258Z,10.40
2023-04-11T04:14:41.433Z,10.30
2023-04-11T04:17:13.222Z,10.20
2023-04-11T04:19:44.321Z,10.20
2023-04-11T04:22:17.115Z,10.20
2023-04-11T04:24:48.185Z,10.20
2023-04-11T04:27:19.161Z,10.20
2023-04-11T04:29:52.288Z,10.10
2023-04-11T04:32:25.191Z,10.10
2023-04-11T04:34:56.681Z,10.10
2023-04-11T04:37:28.276Z,10.00
2023-04-11T04:40:02.463Z,10.00
2023-04-11T04:42:34.499Z,10.10
2023-04-11T04:45:06.792Z,10.00
2023-04-11T04:47:39.305Z,10.00
2023-04-11T04:50:12.492Z,10.00
2023-04-11T04:52:46.617Z,10.00
2023-04-11T04:55:17.680Z,10.00
2023-04-11T04:57:48.406Z,10.00
2023-04-11T05:00:21.805Z,10.10
2023-04-11T05:02:54.197Z,10.00
2023-04-11T05:05:25.102Z,10.00
2023-04-11T05:07:55.874Z,10.00
2023-04-11T05:10:26.947Z,10.00
2023-04-11T05:12:58.560Z,10.00
2023-04-11T05:15:29.177Z,10.00
2023-04-11T05:18:00.118Z,10.00
2023-04-11T05:20:31.291Z,10.00
2023-04-11T05:23:02.046Z,10.00
2023-04-11T05:25:33.092Z,10.00
2023-04-11T05:28:03.789Z,9.90
2023-04-11T05:30:34.608Z,10.00
2023-04-11T05:33:05.803Z,10.00
2023-04-11T05:35:36.574Z,10.00
2023-04-11T05:38:07.296Z,10.10
2023-04-11T05:40:38.075Z,10.10
2023-04-11T05:43:10.729Z,10.10
2023-04-11T05:45:41.871Z,10.00
2023-04-11T05:48:13.818Z,10.00
2023-04-11T05:50:44.876Z,10.00
2023-04-11T05:53:15.700Z,10.00
2023-04-11T05:55:46.652Z,10.00
2023-04-11T05:58:17.681Z,10.00
2023-04-11T06:00:49.960Z,10.10
2023-04-11T06:03:21.958Z,10.10
2023-04-11T06:05:52.872Z,10.10
2023-04-11T06:08:23.504Z,10.20
2023-04-11T06:10:54.276Z,10.10
2023-04-11T06:13:25.408Z,10.10
2023-04-11T06:15:56.405Z,10.20
2023-04-11T06:18:27.200Z,10.20
2023-04-11T06:20:57.981Z,10.30
2023-04-11T06:23:28.669Z,10.30
2023-04-11T06:25:59.512Z,10.30
2023-04-11T06:28:30.160Z,10.40
2023-04-11T06:31:00.934Z,10.30
2023-04-11T06:33:31.739Z,10.30
2023-04-11T06:36:04.204Z,10.30
2023-04-11T06:38:37.101Z,10.40
2023-04-11T06:41:09.884Z,10.40
2023-04-11T06:43:41.127Z,10.40
2023-04-11T06:46:12.872Z,10.30
2023-04-11T06:51:22.395Z,10.40
2023-04-11T06:53:53.233Z,10.40
2023-04-11T06:56:23.995Z,10.40
2023-04-11T06:58:54.813Z,10.40
2023-04-11T07:01:29.855Z,10.40
2023-04-11T07:04:01.019Z,10.40
2023-04-11T07:06:32.577Z,10.30
2023-04-11T07:09:03.971Z,10.40
2023-04-11T07:11:35.178Z,10.30
2023-04-11T07:14:06.245Z,10.30
2023-04-11T07:16:37.086Z,10.30
2023-04-11T07:19:07.837Z,10.30
2023-04-11T07:21:38.522Z,10.30
2023-04-11T07:24:12.628Z,10.30
2023-04-11T07:26:43.261Z,10.40
2023-04-11T07:29:14.818Z,10.30
2023-04-11T07:31:46.149Z,10.30
2023-04-11T07:34:17.495Z,10.30
2023-04-11T07:36:50.150Z,10.30
2023-04-11T07:39:20.897Z,10.30
2023-04-11T07:41:51.604Z,10.30
2023-04-11T07:44:23.312Z,10.30
2023-04-11T07:46:54.743Z,10.30
2023-04-11T07:49:25.746Z,10.30
2023-04-11T07:51:57.009Z,10.00
2023-04-11T07:54:28.757Z,10.00
2023-04-11T07:56:59.616Z,10.00
2023-04-11T07:59:30.488Z,10.00
2023-04-11T08:02:02.783Z,10.00
2023-04-11T08:04:35.483Z,10.00
2023-04-11T08:07:07.151Z,9.90
2023-04-11T08:09:37.865Z,9.90
2023-04-11T08:12:08.947Z,9.80
2023-04-11T08:14:40.221Z,9.70
2023-04-11T08:17:24.972Z,9.60
2023-04-11T08:19:44.711Z,9.60
2023-04-11T08:22:15.453Z,9.60
2023-04-11T08:24:46.192Z,9.60
2023-04-11T08:27:16.974Z,9.60
2023-04-11T08:29:48.243Z,9.50
2023-04-11T08:32:19.350Z,9.40
2023-04-11T08:34:50.058Z,9.60
2023-04-11T08:37:21.004Z,9.60
2023-04-11T08:39:51.832Z,9.60
2023-04-11T08:42:26.608Z,9.60
2023-04-11T08:44:59.275Z,9.50
2023-04-11T08:47:30.062Z,9.60
2023-04-11T08:50:00.817Z,9.70
2023-04-11T08:52:34.747Z,9.80
2023-04-11T08:55:07.799Z,9.70
2023-04-11T08:57:39.151Z,9.60
2023-04-11T09:00:16.075Z,9.60
2023-04-11T09:02:59.384Z,9.80
2023-04-11T09:05:32.464Z,10.00
2023-04-11T09:08:06.710Z,10.00
2023-04-11T09:10:39.222Z,10.20
2023-04-11T09:13:24.799Z,10.20
2023-04-11T09:16:09.431Z,10.20
2023-04-11T09:18:42.562Z,10.20
2023-04-11T09:21:15.331Z,10.30
2023-04-11T09:23:47.211Z,10.20
2023-04-11T09:26:27.680Z,10.30
2023-04-11T09:28:59.847Z,10.30
2023-04-11T09:31:43.146Z,10.60
2023-04-11T09:34:14.866Z,10.70
2023-04-11T09:36:47.324Z,10.90
2023-04-11T09:39:21.739Z,11.00
2023-04-11T09:41:53.080Z,11.00
2023-04-11T09:44:30.188Z,11.10
2023-04-11T09:47:01.932Z,10.80
2023-04-11T09:49:35.332Z,10.90
2023-04-11T09:52:06.833Z,11.00
2023-04-11T09:54:39.463Z,10.90
2023-04-11T09:57:11.334Z,11.00
2023-04-11T09:59:43.688Z,11.00
2023-04-11T10:02:16.941Z,10.80
2023-04-11T10:04:47.859Z,10.90
2023-04-11T10:07:19.106Z,10.90
2023-04-11T10:09:50.490Z,11.00
2023-04-11T10:12:36.582Z,11.20
2023-04-11T10:15:12.091Z,11.20
2023-04-11T10:17:43.200Z,11.30
2023-04-11T10:23:24.325Z,11.60
2023-04-11T10:25:58.208Z,12.20
2023-04-11T10:28:40.062Z,12.40
2023-04-11T10:31:14.364Z,12.30
2023-04-11T10:37:04.964Z,12.50
2023-04-11T10:40:09.151Z,12.50
2023-04-11T10:42:43.550Z,12.60
2023-04-11T10:45:21.980Z,13.00
2023-04-11T10:48:11.311Z,13.40
2023-04-11T10:50:46.267Z,13.60
2023-04-11T10:56:39.428Z,13.80
2023-04-11T10:59:11.742Z,13.80
2023-04-11T11:04:17.772Z,14.10
2023-04-11T11:06:56.761Z,14.20
2023-04-11T11:09:24.348Z,14.30
2023-04-11T11:12:11.948Z,14.20
2023-04-11T11:14:44.240Z,14.10
2023-04-11T11:17:16.692Z,14.30
2023-04-11T11:19:48.026Z,14.20
2023-04-11T11:24:56.381Z,14.50
2023-04-11T11:27:27.496Z,14.80
2023-04-11T11:29:58.231Z,14.60
2023-04-11T11:32:29.785Z,14.40
2023-04-11T11:35:03.994Z,14.80
2023-04-11T11:37:34.635Z,15.00
2023-04-11T11:40:09.748Z,15.20
2023-04-11T11:45:22.170Z,15.70
2023-04-11T11:47:53.461Z,15.40
2023-04-11T11:50:32.733Z,15.50
2023-04-11T11:53:15.221Z,15.40
2023-04-11T11:55:46.531Z,15.60
2023-04-11T11:58:19.053Z,15.70
2023-04-11T12:00:52.976Z,15.60
2023-04-11T12:03:25.933Z,15.50
2023-04-11T12:05:58.489Z,15.50
2023-04-11T12:08:31.024Z,15.40
2023-04-11T12:11:02.752Z,15.70
2023-04-11T12:13:33.772Z,15.70
2023-04-11T12:16:04.809Z,16.00
2023-04-11T12:18:36.469Z,15.90
2023-04-11T12:21:08.243Z,15.60
2023-04-11T12:23:39.084Z,16.10
2023-04-11T12:26:10.428Z,15.80
2023-04-11T12:28:41.289Z,15.80
2023-04-11T12:31:14.972Z,15.90
2023-04-11T12:33:46.106Z,15.80
2023-04-11T12:36:16.980Z,15.80
2023-04-11T12:38:48.585Z,15.90
2023-04-11T12:41:32.327Z,15.40
2023-04-11T12:43:53.983Z,15.30
2023-04-11T12:46:24.819Z,15.40
2023-04-11T12:48:55.711Z,15.70
2023-04-11T12:51:27.801Z,15.50
2023-04-11T12:53:58.671Z,15.40
2023-04-11T12:56:29.588Z,15.50
2023-04-11T12:59:00.247Z,15.60
2023-04-11T13:01:31.071Z,15.30
2023-04-11T13:04:02.629Z,15.20
2023-04-11T13:06:34.273Z,15.20
2023-04-11T13:09:07.530Z,15.10
2023-04-11T13:11:38.777Z,15.00
2023-04-11T13:14:09.459Z,14.70
2023-04-11T13:16:40.210Z,15.00
2023-04-11T13:19:10.993Z,15.20
2023-04-11T13:21:41.736Z,15.10
2023-04-11T13:24:12.701Z,15.30
2023-04-11T13:26:45.220Z,15.40
2023-04-11T13:29:16.126Z,15.40
2023-04-11T13:31:47.032Z,15.20
2023-04-11T13:34:18.627Z,15.20
2023-04-11T13:36:49.477Z,15.30
2023-04-11T13:39:20.307Z,15.30
2023-04-11T13:41:51.090Z,15.10
2023-04-11T13:44:22.387Z,15.20
2023-04-11T13:46:53.120Z,15.40
2023-04-11T13:49:23.889Z,15.80
2023-04-11T13:51:54.574Z,16.00
2023-04-11T13:54:26.358Z,15.60
2023-04-11T13:56:59.254Z,15.40
2023-04-11T13:59:30.231Z,15.30
2023-04-11T14:02:02.857Z,15.80
2023-04-11T14:04:34.096Z,15.70
2023-04-11T14:07:05.141Z,15.60
2023-04-11T14:09:36.520Z,15.60
2023-04-11T14:12:08.294Z,15.80
2023-04-11T14:14:40.219Z,16.00
2023-04-11T14:17:14.187Z,15.90
2023-04-11T14:19:52.465Z,15.60
2023-04-11T14:22:25.687Z,15.90
2023-04-11T14:24:57.010Z,16.50
2023-04-11T14:27:30.078Z,16.80
2023-04-11T14:30:04.011Z,16.30
2023-04-11T14:32:39.448Z,16.50
2023-04-11T14:35:12.331Z,16.90
2023-04-11T14:37:45.458Z,17.30
2023-04-11T14:40:16.424Z,17.60
2023-04-11T14:42:47.107Z,16.90
2023-04-11T14:45:18.355Z,16.80
2023-04-11T14:47:49.342Z,16.80
2023-04-11T14:53:00.102Z,17.20
2023-04-11T14:55:31.073Z,17.80
2023-04-11T14:58:01.835Z,18.00
2023-04-11T15:00:33.061Z,17.90
2023-04-11T15:03:04.286Z,18.20
2023-04-11T15:05:35.185Z,17.90
2023-04-11T15:08:06.187Z,18.10
2023-04-11T15:10:37.561Z,17.20
2023-04-11T15:13:09.665Z,17.80
2023-04-11T15:15:40.350Z,18.70
2023-04-11T15:18:25.859Z,18.90
2023-04-11T15:20:58.938Z,18.60
2023-04-11T15:23:30.774Z,18.90
2023-04-11T15:26:04.120Z,18.00
2023-04-11T15:28:36.978Z,17.70
2023-04-11T15:31:11.251Z,17.20
2023-04-11T15:33:43.429Z,16.80
2023-04-11T15:36:14.964Z,16.50
2023-04-11T15:38:46.853Z,16.90
2023-04-11T15:41:18.292Z,17.30
2023-04-11T15:46:29.658Z,18.00
2023-04-11T15:49:00.362Z,17.50
2023-04-11T15:51:31.174Z,16.90
2023-04-11T15:54:01.976Z,16.80
2023-04-11T15:56:33.605Z,16.80
2023-04-11T15:59:04.328Z,16.80
2023-04-11T16:01:37.142Z,16.70
2023-04-11T16:04:08.061Z,16.10
2023-04-11T16:06:38.848Z,16.20
2023-04-11T16:09:09.772Z,16.10
2023-04-11T16:11:41.509Z,16.30
2023-04-11T16:14:12.302Z,16.10
2023-04-11T16:16:44.849Z,15.90
2023-04-11T16:19:15.545Z,15.80
2023-04-11T16:21:46.517Z,16.00
2023-04-11T16:24:18.681Z,16.00
2023-04-11T16:26:49.464Z,15.80
2023-04-11T16:29:20.101Z,15.80
2023-04-11T16:31:51.253Z,15.60
2023-04-11T16:34:22.127Z,15.50
2023-04-11T16:36:52.794Z,15.40
2023-04-11T16:39:23.728Z,15.30
2023-04-11T16:41:55.956Z,15.10
2023-04-11T16:44:26.833Z,15.30
2023-04-11T16:46:57.650Z,15.40
2023-04-11T16:49:28.307Z,15.40
2023-04-11T16:54:36.278Z,15.00
2023-04-11T16:57:07.036Z,15.10
2023-04-11T16:59:37.811Z,15.00
2023-04-11T17:02:08.735Z,14.90
2023-04-11T17:04:39.931Z,14.90
2023-04-11T17:07:11.557Z,14.80
2023-04-11T17:09:42.401Z,14.90
2023-04-11T17:12:13.330Z,14.80
2023-04-11T17:14:46.019Z,14.80
2023-04-11T17:17:16.751Z,14.90
2023-04-11T17:19:47.537Z,14.70
2023-04-11T17:22:18.423Z,14.70
2023-04-11T17:24:49.091Z,14.60
2023-04-11T17:27:19.828Z,14.50
2023-04-11T17:29:50.469Z,14.50
2023-04-11T17:32:21.582Z,14.50
2023-04-11T17:34:53.320Z,14.50
2023-04-11T17:37:24.030Z,14.40
2023-04-11T17:39:55.942Z,14.40
2023-04-11T17:42:26.736Z,14.40
2023-04-11T17:45:03.761Z,14.40
2023-04-11T17:47:29.846Z,14.20
2023-04-11T17:50:00.569Z,14.00
2023-04-11T17:52:31.297Z,13.90
2023-04-11T17:55:03.829Z,13.80
2023-04-11T17:57:35.018Z,13.70
2023-04-11T18:00:10.481Z,13.60
2023-04-11T18:02:42.949Z,13.60
2023-04-11T18:05:23.213Z,13.60
2023-04-11T18:07:49.671Z,13.40
2023-04-11T18:10:22.535Z,13.40
2023-04-11T18:12:55.411Z,13.40
2023-04-11T18:15:27.488Z,13.30
2023-04-11T18:17:59.211Z,13.30
2023-04-11T18:20:30.118Z,13.40
2023-04-11T18:23:01.224Z,13.30
2023-04-11T18:25:33.148Z,13.20
2023-04-11T18:28:04.380Z,13.20
2023-04-11T18:30:35.114Z,13.20
2023-04-11T18:33:08.461Z,13.10
2023-04-11T18:35:40.282Z,12.90
2023-04-11T18:38:11.444Z,12.90
2023-04-11T18:40:42.250Z,13.00
2023-04-11T18:43:13.051Z,13.00
2023-04-11T18:45:45.448Z,13.10
2023-04-11T18:48:21.318Z,13.10
2023-04-11T18:51:01.635Z,13.20
2023-04-11T18:53:34.903Z,13.20
2023-04-11T18:58:50.326Z,13.30
2023-04-11T19:01:20.134Z,13.20
2023-04-11T19:03:53.507Z,13.20
2023-04-11T19:06:25.716Z,13.10
2023-04-11T19:09:07.718Z,13.00
2023-04-11T19:11:38.670Z,13.10
2023-04-11T19:14:16.406Z,13.10
2023-04-11T19:16:47.680Z,13.00
2023-04-11T19:19:18.753Z,13.00
2023-04-11T19:21:49.770Z,12.90
2023-04-11T19:24:20.862Z,12.90
2023-04-11T19:26:52.918Z,13.00
2023-04-11T19:29:23.683Z,13.00
2023-04-11T19:31:54.980Z,13.10
2023-04-11T19:34:26.818Z,13.10
2023-04-11T19:36:57.602Z,12.90
2023-04-11T19:39:30.204Z,12.90
2023-04-11T19:42:02.401Z,12.90
2023-04-11T19:44:33.135Z,12.90
2023-04-11T19:47:03.891Z,12.90
2023-04-11T19:49:34.612Z,12.80
2023-04-11T19:54:42.637Z,12.50
2023-04-11T19:57:13.431Z,12.40
2023-04-11T19:59:44.114Z,12.40
2023-04-11T20:05:12.288Z,12.40
2023-04-11T20:07:45.661Z,12.40
2023-04-11T20:12:56.878Z,12.70
2023-04-11T20:15:28.299Z,12.80
2023-04-11T20:18:00.810Z,12.80
2023-04-11T20:20:33.732Z,12.90
2023-04-11T20:23:07.825Z,12.80
2023-04-11T20:25:43.448Z,12.80
2023-04-11T20:28:14.289Z,12.70
2023-04-11T20:30:46.088Z,12.60
2023-04-11T20:33:22.338Z,12.60
2023-04-11T20:35:55.269Z,12.60
2023-04-11T20:38:26.987Z,12.60
2023-04-11T20:40:57.893Z,12.50
2023-04-11T20:43:33.964Z,12.50
2023-04-11T20:46:21.809Z,12.40
2023-04-11T20:51:30.372Z,12.40
2023-04-11T20:54:00.992Z,12.50
2023-04-11T20:56:33.266Z,12.40
2023-04-11T21:01:41.880Z,12.30
2023-04-11T21:06:49.363Z,12.20
2023-04-11T21:09:19.966Z,12.10
2023-04-11T21:14:27.633Z,11.80
2023-04-11T21:16:58.225Z,11.90
2023-04-11T21:22:06.443Z,11.90
2023-04-11T21:27:14.675Z,11.80
2023-04-11T21:29:45.261Z,11.70
2023-04-11T21:32:16.018Z,11.70
2023-04-11T21:34:46.579Z,11.70
2023-04-11T21:37:17.280Z,11.50
2023-04-11T21:39:48.009Z,11.50
2023-04-11T21:42:18.651Z,11.50
2023-04-11T21:44:50.345Z,11.40
2023-04-11T21:47:21.338Z,11.30
2023-04-11T21:49:52.157Z,11.40
2023-04-11T21:52:22.784Z,11.30
2023-04-11T21:54:53.547Z,11.30
2023-04-11T21:57:24.313Z,11.30
2023-04-11T21:59:55.054Z,11.20
2023-04-11T22:02:25.904Z,11.20
2023-04-11T22:05:06.515Z,11.10
2023-04-11T22:07:33.713Z,11.10
2023-04-11T22:10:05.848Z,10.80
2023-04-11T22:12:37.175Z,10.60
2023-04-11T22:15:11.659Z,10.60
2023-04-11T22:17:43.719Z,10.50
2023-04-11T22:20:16.837Z,10.60
2023-04-11T22:22:48.245Z,10.80
2023-04-11T22:25:20.668Z,10.80
2023-04-11T22:27:52.912Z,10.90
2023-04-11T22:30:24.572Z,11.00
2023-04-11T22:32:55.939Z,10.70
2023-04-11T22:35:26.631Z,10.50
2023-04-11T22:37:59.482Z,10.40
2023-04-11T22:40:30.099Z,10.70
2023-04-11T22:43:01.880Z,10.80
2023-04-11T22:45:35.402Z,10.80
2023-04-11T22:48:07.079Z,10.70
2023-04-11T22:50:38.071Z,10.70
2023-04-11T22:53:09.611Z,10.70
2023-04-11T22:55:40.731Z,10.70
2023-04-11T22:58:11.467Z,11.00
2023-04-11T23:00:43.594Z,11.00
2023-04-11T23:03:14.368Z,11.10
2023-04-11T23:05:45.098Z,11.20
2023-04-11T23:08:15.830Z,11.10
2023-04-11T23:10:46.416Z,11.10
2023-04-11T23:13:17.006Z,11.00
2023-04-11T23:15:48.620Z,10.80
2023-04-11T23:18:19.489Z,10.60
2023-04-11T23:20:50.719Z,10.40
2023-04-11T23:23:21.340Z,10.40
2023-04-11T23:25:52.395Z,10.40
2023-04-11T23:28:24.494Z,10.30
2023-04-11T23:30:56.193Z,10.40
2023-04-11T23:33:26.954Z,10.50
2023-04-11T23:35:58.085Z,10.60
2023-04-11T23:38:29.134Z,10.70
2023-04-11T23:40:59.785Z,10.70
2023-04-11T23:43:30.397Z,10.70
2023-04-11T23:46:01.520Z,10.60
2023-04-11T23:48:32.442Z,10.50
2023-04-11T23:51:03.691Z,10.40
2023-04-11T23:53:34.365Z,10.50
2023-04-11T23:56:05.118Z,10.40
2023-04-11T23:58:36.505Z,10.40
